sensor_id;sensor_type;location;lat;lon;timestamp;P1;durP1;ratioP1;P2;durP2;ratioP2
64571;SDS011;51155;51.984;21.208;2023-02-11T00:02:02;10.90;;;6.00;;
64571;SDS011;51155;51.984;21.208;2023-02-11T00:04:36;10.80;;;6.10;;
64571;SDS011;51155;51.984;21.208;2023-02-11T00:07:07;9.70;;;5.50;;
64571;SDS011;51155;51.984;21.208;2023-02-11T00:09:39;9.90;;;6.00;;
64571;SDS011;51155;51.984;21.208;2023-02-11T00:12:11;11.20;;;6.10;;
64571;SDS011;51155;51.984;21.208;2023-02-11T00:14:43;10.30;;;6.70;;
64571;SDS011;51155;51.984;21.208;2023-02-11T00:17:16;10.00;;;5.70;;
64571;SDS011;51155;51.984;21.208;2023-02-11T00:19:49;9.30;;;6.40;;
64571;SDS011;51155;51.984;21.208;2023-02-11T00:22:21;8.80;;;5.70;;
64571;SDS011;51155;51.984;21.208;2023-02-11T00:24:53;9.80;;;5.80;;
64571;SDS011;51155;51.984;21.208;2023-02-11T00:27:27;10.50;;;6.10;;
64571;SDS011;51155;51.984;21.208;2023-02-11T00:29:59;9.00;;;5.60;;
64571;SDS011;51155;51.984;21.208;2023-02-11T00:32:34;9.10;;;5.60;;
64571;SDS011;51155;51.984;21.208;2023-02-11T00:35:06;9.40;;;5.50;;
64571;SDS011;51155;51.984;21.208;2023-02-11T00:37:38;9.30;;;5.60;;
64571;SDS011;51155;51.984;21.208;2023-02-11T00:40:10;9.40;;;5.70;;
64571;SDS011;51155;51.984;21.208;2023-02-11T00:42:42;9.30;;;5.90;;
64571;SDS011;51155;51.984;21.208;2023-02-11T00:45:14;9.10;;;5.60;;
64571;SDS011;51155;51.984;21.208;2023-02-11T00:47:46;9.10;;;5.70;;
64571;SDS011;51155;51.984;21.208;2023-02-11T00:50:18;8.20;;;5.50;;
64571;SDS011;51155;51.984;21.208;2023-02-11T00:55:23;9.70;;;5.30;;
64571;SDS011;51155;51.984;21.208;2023-02-11T00:57:55;10.30;;;5.10;;
64571;SDS011;51155;51.984;21.208;2023-02-11T01:00:29;10.00;;;6.10;;
64571;SDS011;51155;51.984;21.208;2023-02-11T01:03:01;10.60;;;5.80;;
64571;SDS011;51155;51.984;21.208;2023-02-11T01:05:33;9.70;;;5.30;;
64571;SDS011;51155;51.984;21.208;2023-02-11T01:08:06;10.20;;;5.80;;
64571;SDS011;51155;51.984;21.208;2023-02-11T01:10:38;8.90;;;5.10;;
64571;SDS011;51155;51.984;21.208;2023-02-11T01:13:10;8.80;;;5.60;;
64571;SDS011;51155;51.984;21.208;2023-02-11T01:15:42;9.30;;;5.80;;
64571;SDS011;51155;51.984;21.208;2023-02-11T01:18:14;9.00;;;5.50;;
64571;SDS011;51155;51.984;21.208;2023-02-11T01:20:46;9.80;;;5.60;;
64571;SDS011;51155;51.984;21.208;2023-02-11T01:23:18;9.10;;;5.80;;
64571;SDS011;51155;51.984;21.208;2023-02-11T01:25:50;9.50;;;5.20;;
64571;SDS011;51155;51.984;21.208;2023-02-11T01:28:25;9.50;;;5.80;;
64571;SDS011;51155;51.984;21.208;2023-02-11T01:30:58;7.40;;;5.10;;
64571;SDS011;51155;51.984;21.208;2023-02-11T01:33:30;9.70;;;5.40;;
64571;SDS011;51155;51.984;21.208;2023-02-11T01:36:03;9.80;;;5.60;;
64571;SDS011;51155;51.984;21.208;2023-02-11T01:38:36;10.40;;;6.10;;
64571;SDS011;51155;51.984;21.208;2023-02-11T01:41:11;9.10;;;5.60;;
64571;SDS011;51155;51.984;21.208;2023-02-11T01:43:46;9.70;;;5.70;;
64571;SDS011;51155;51.984;21.208;2023-02-11T01:49:10;9.20;;;5.10;;
64571;SDS011;51155;51.984;21.208;2023-02-11T01:51:45;9.80;;;5.60;;
64571;SDS011;51155;51.984;21.208;2023-02-11T01:54:21;8.80;;;4.90;;
64571;SDS011;51155;51.984;21.208;2023-02-11T01:57:15;8.90;;;5.30;;
64571;SDS011;51155;51.984;21.208;2023-02-11T02:00:15;10.20;;;5.20;;
64571;SDS011;51155;51.984;21.208;2023-02-11T02:08:46;7.60;;;5.00;;
64571;SDS011;51155;51.984;21.208;2023-02-11T02:11:22;8.00;;;5.10;;
64571;SDS011;51155;51.984;21.208;2023-02-11T02:13:54;8.70;;;5.10;;
64571;SDS011;51155;51.984;21.208;2023-02-11T02:16:35;7.30;;;4.90;;
64571;SDS011;51155;51.984;21.208;2023-02-11T02:26:10;7.90;;;4.90;;
64571;SDS011;51155;51.984;21.208;2023-02-11T02:37:39;7.10;;;4.30;;
64571;SDS011;51155;51.984;21.208;2023-02-11T02:40:31;7.80;;;4.70;;
64571;SDS011;51155;51.984;21.208;2023-02-11T02:43:04;8.50;;;4.70;;
64571;SDS011;51155;51.984;21.208;2023-02-11T02:45:38;7.50;;;4.30;;
64571;SDS011;51155;51.984;21.208;2023-02-11T02:48:26;6.60;;;4.20;;
64571;SDS011;51155;51.984;21.208;2023-02-11T02:59:50;6.80;;;4.50;;
64571;SDS011;51155;51.984;21.208;2023-02-11T03:07:54;7.60;;;4.30;;
64571;SDS011;51155;51.984;21.208;2023-02-11T03:10:33;6.40;;;4.20;;
64571;SDS011;51155;51.984;21.208;2023-02-11T03:13:07;6.10;;;3.90;;
64571;SDS011;51155;51.984;21.208;2023-02-11T03:15:41;6.40;;;4.10;;
64571;SDS011;51155;51.984;21.208;2023-02-11T03:18:16;6.40;;;3.80;;
64571;SDS011;51155;51.984;21.208;2023-02-11T03:20:50;6.70;;;3.90;;
64571;SDS011;51155;51.984;21.208;2023-02-11T03:23:49;6.70;;;4.00;;
64571;SDS011;51155;51.984;21.208;2023-02-11T03:26:27;6.40;;;4.00;;
64571;SDS011;51155;51.984;21.208;2023-02-11T03:29:36;6.40;;;4.10;;
64571;SDS011;51155;51.984;21.208;2023-02-11T03:35:19;6.00;;;3.60;;
64571;SDS011;51155;51.984;21.208;2023-02-11T03:38:22;7.00;;;3.60;;
64571;SDS011;51155;51.984;21.208;2023-02-11T03:40:56;6.90;;;3.90;;
64571;SDS011;51155;51.984;21.208;2023-02-11T03:43:41;5.70;;;3.50;;
64571;SDS011;51155;51.984;21.208;2023-02-11T03:46:15;6.10;;;3.30;;
64571;SDS011;51155;51.984;21.208;2023-02-11T03:48:51;7.10;;;4.00;;
64571;SDS011;51155;51.984;21.208;2023-02-11T03:51:24;7.00;;;3.80;;
64571;SDS011;51155;51.984;21.208;2023-02-11T03:53:59;7.20;;;3.90;;
64571;SDS011;51155;51.984;21.208;2023-02-11T03:56:35;7.40;;;4.00;;
64571;SDS011;51155;51.984;21.208;2023-02-11T03:59:08;5.20;;;3.40;;
64571;SDS011;51155;51.984;21.208;2023-02-11T04:01:40;6.40;;;3.50;;
64571;SDS011;51155;51.984;21.208;2023-02-11T04:04:12;6.50;;;3.70;;
64571;SDS011;51155;51.984;21.208;2023-02-11T04:06:44;5.50;;;3.50;;
64571;SDS011;51155;51.984;21.208;2023-02-11T04:09:16;6.80;;;4.20;;
64571;SDS011;51155;51.984;21.208;2023-02-11T04:11:48;5.80;;;3.30;;
64571;SDS011;51155;51.984;21.208;2023-02-11T04:14:20;6.60;;;3.60;;
64571;SDS011;51155;51.984;21.208;2023-02-11T04:16:52;7.30;;;3.80;;
64571;SDS011;51155;51.984;21.208;2023-02-11T04:19:24;6.00;;;3.30;;
64571;SDS011;51155;51.984;21.208;2023-02-11T04:21:56;6.80;;;3.30;;
64571;SDS011;51155;51.984;21.208;2023-02-11T04:24:28;6.20;;;3.60;;
64571;SDS011;51155;51.984;21.208;2023-02-11T04:27:00;5.70;;;3.40;;
64571;SDS011;51155;51.984;21.208;2023-02-11T04:29:32;7.20;;;3.70;;
64571;SDS011;51155;51.984;21.208;2023-02-11T04:32:04;6.50;;;3.50;;
64571;SDS011;51155;51.984;21.208;2023-02-11T04:34:36;5.20;;;3.60;;
64571;SDS011;51155;51.984;21.208;2023-02-11T04:37:08;6.40;;;3.80;;
64571;SDS011;51155;51.984;21.208;2023-02-11T04:39:40;7.80;;;3.70;;
64571;SDS011;51155;51.984;21.208;2023-02-11T04:42:12;7.80;;;3.70;;
64571;SDS011;51155;51.984;21.208;2023-02-11T04:44:44;6.60;;;3.40;;
64571;SDS011;51155;51.984;21.208;2023-02-11T04:47:16;6.00;;;3.70;;
64571;SDS011;51155;51.984;21.208;2023-02-11T04:49:48;7.20;;;3.60;;
64571;SDS011;51155;51.984;21.208;2023-02-11T04:52:20;6.30;;;3.60;;
64571;SDS011;51155;51.984;21.208;2023-02-11T04:54:52;7.30;;;3.50;;
64571;SDS011;51155;51.984;21.208;2023-02-11T04:57:24;6.00;;;3.40;;
64571;SDS011;51155;51.984;21.208;2023-02-11T04:59:56;5.90;;;3.80;;
64571;SDS011;51155;51.984;21.208;2023-02-11T05:02:28;5.80;;;3.60;;
64571;SDS011;51155;51.984;21.208;2023-02-11T05:05:00;6.70;;;4.00;;
64571;SDS011;51155;51.984;21.208;2023-02-11T05:07:32;6.10;;;3.20;;
64571;SDS011;51155;51.984;21.208;2023-02-11T05:10:04;5.80;;;3.20;;
64571;SDS011;51155;51.984;21.208;2023-02-11T05:12:36;6.90;;;4.00;;
64571;SDS011;51155;51.984;21.208;2023-02-11T05:15:08;6.10;;;4.00;;
64571;SDS011;51155;51.984;21.208;2023-02-11T05:17:40;5.60;;;3.30;;
64571;SDS011;51155;51.984;21.208;2023-02-11T05:20:12;4.90;;;3.10;;
64571;SDS011;51155;51.984;21.208;2023-02-11T05:22:44;6.40;;;3.50;;
64571;SDS011;51155;51.984;21.208;2023-02-11T05:25:16;6.00;;;3.70;;
64571;SDS011;51155;51.984;21.208;2023-02-11T05:27:48;6.60;;;3.30;;
64571;SDS011;51155;51.984;21.208;2023-02-11T05:30:20;6.50;;;3.30;;
64571;SDS011;51155;51.984;21.208;2023-02-11T05:32:52;5.60;;;3.30;;
64571;SDS011;51155;51.984;21.208;2023-02-11T05:35:24;6.10;;;3.10;;
64571;SDS011;51155;51.984;21.208;2023-02-11T05:37:56;6.60;;;3.20;;
64571;SDS011;51155;51.984;21.208;2023-02-11T05:40:28;5.50;;;3.30;;
64571;SDS011;51155;51.984;21.208;2023-02-11T05:43:00;5.90;;;3.40;;
64571;SDS011;51155;51.984;21.208;2023-02-11T05:45:32;5.70;;;3.30;;
64571;SDS011;51155;51.984;21.208;2023-02-11T05:48:04;5.60;;;3.20;;
64571;SDS011;51155;51.984;21.208;2023-02-11T05:50:36;5.50;;;3.20;;
64571;SDS011;51155;51.984;21.208;2023-02-11T05:53:08;5.40;;;2.80;;
64571;SDS011;51155;51.984;21.208;2023-02-11T05:55:40;5.20;;;3.10;;
64571;SDS011;51155;51.984;21.208;2023-02-11T05:58:12;4.90;;;3.10;;
64571;SDS011;51155;51.984;21.208;2023-02-11T06:00:44;4.80;;;3.20;;
64571;SDS011;51155;51.984;21.208;2023-02-11T06:03:16;6.20;;;3.30;;
64571;SDS011;51155;51.984;21.208;2023-02-11T06:05:48;4.80;;;3.00;;
64571;SDS011;51155;51.984;21.208;2023-02-11T06:08:21;5.30;;;3.30;;
64571;SDS011;51155;51.984;21.208;2023-02-11T06:10:53;5.00;;;2.90;;
64571;SDS011;51155;51.984;21.208;2023-02-11T06:13:24;5.70;;;3.10;;
64571;SDS011;51155;51.984;21.208;2023-02-11T06:15:58;4.90;;;3.00;;
64571;SDS011;51155;51.984;21.208;2023-02-11T06:18:30;6.00;;;3.30;;
64571;SDS011;51155;51.984;21.208;2023-02-11T06:21:08;5.30;;;3.20;;
64571;SDS011;51155;51.984;21.208;2023-02-11T06:23:41;5.50;;;2.80;;
64571;SDS011;51155;51.984;21.208;2023-02-11T06:26:19;6.80;;;3.50;;
64571;SDS011;51155;51.984;21.208;2023-02-11T06:28:52;6.50;;;3.40;;
64571;SDS011;51155;51.984;21.208;2023-02-11T06:31:24;7.30;;;3.50;;
64571;SDS011;51155;51.984;21.208;2023-02-11T06:33:56;4.20;;;2.50;;
64571;SDS011;51155;51.984;21.208;2023-02-11T06:36:30;5.30;;;3.00;;
64571;SDS011;51155;51.984;21.208;2023-02-11T06:39:02;4.70;;;3.00;;
64571;SDS011;51155;51.984;21.208;2023-02-11T06:41:34;5.70;;;3.60;;
64571;SDS011;51155;51.984;21.208;2023-02-11T06:44:06;6.00;;;3.70;;
64571;SDS011;51155;51.984;21.208;2023-02-11T06:46:38;4.50;;;3.10;;
64571;SDS011;51155;51.984;21.208;2023-02-11T06:49:10;5.70;;;3.30;;
64571;SDS011;51155;51.984;21.208;2023-02-11T06:51:42;5.50;;;3.30;;
64571;SDS011;51155;51.984;21.208;2023-02-11T06:54:14;6.60;;;3.80;;
64571;SDS011;51155;51.984;21.208;2023-02-11T06:56:46;6.10;;;3.60;;
64571;SDS011;51155;51.984;21.208;2023-02-11T06:59:18;5.60;;;3.60;;
64571;SDS011;51155;51.984;21.208;2023-02-11T07:01:54;6.10;;;3.40;;
64571;SDS011;51155;51.984;21.208;2023-02-11T07:04:26;6.20;;;3.30;;
64571;SDS011;51155;51.984;21.208;2023-02-11T07:06:58;6.60;;;3.60;;
64571;SDS011;51155;51.984;21.208;2023-02-11T07:09:30;6.20;;;3.80;;
64571;SDS011;51155;51.984;21.208;2023-02-11T07:12:05;5.60;;;3.40;;
64571;SDS011;51155;51.984;21.208;2023-02-11T07:14:37;5.00;;;3.30;;
64571;SDS011;51155;51.984;21.208;2023-02-11T07:17:09;6.30;;;3.60;;
64571;SDS011;51155;51.984;21.208;2023-02-11T07:19:41;5.50;;;3.70;;
64571;SDS011;51155;51.984;21.208;2023-02-11T07:22:13;6.00;;;3.40;;
64571;SDS011;51155;51.984;21.208;2023-02-11T07:24:45;4.80;;;3.00;;
64571;SDS011;51155;51.984;21.208;2023-02-11T07:27:17;5.60;;;3.20;;
64571;SDS011;51155;51.984;21.208;2023-02-11T07:29:49;5.10;;;3.30;;
64571;SDS011;51155;51.984;21.208;2023-02-11T07:32:21;5.80;;;3.40;;
64571;SDS011;51155;51.984;21.208;2023-02-11T07:34:53;6.70;;;3.80;;
64571;SDS011;51155;51.984;21.208;2023-02-11T07:37:25;5.50;;;3.30;;
64571;SDS011;51155;51.984;21.208;2023-02-11T07:39:57;6.50;;;3.50;;
64571;SDS011;51155;51.984;21.208;2023-02-11T07:42:29;5.30;;;3.40;;
64571;SDS011;51155;51.984;21.208;2023-02-11T07:45:01;6.30;;;3.40;;
64571;SDS011;51155;51.984;21.208;2023-02-11T07:47:34;5.00;;;3.30;;
64571;SDS011;51155;51.984;21.208;2023-02-11T07:50:06;5.80;;;3.40;;
64571;SDS011;51155;51.984;21.208;2023-02-11T07:52:38;5.90;;;3.80;;
64571;SDS011;51155;51.984;21.208;2023-02-11T07:55:10;5.70;;;3.70;;
64571;SDS011;51155;51.984;21.208;2023-02-11T07:57:42;6.00;;;3.90;;
64571;SDS011;51155;51.984;21.208;2023-02-11T08:00:15;6.40;;;3.40;;
64571;SDS011;51155;51.984;21.208;2023-02-11T08:02:51;6.40;;;3.50;;
64571;SDS011;51155;51.984;21.208;2023-02-11T08:05:23;8.40;;;3.70;;
64571;SDS011;51155;51.984;21.208;2023-02-11T08:07:55;6.40;;;4.30;;
64571;SDS011;51155;51.984;21.208;2023-02-11T08:10:27;6.00;;;3.60;;
64571;SDS011;51155;51.984;21.208;2023-02-11T08:12:59;5.30;;;4.10;;
64571;SDS011;51155;51.984;21.208;2023-02-11T08:15:31;7.00;;;3.90;;
64571;SDS011;51155;51.984;21.208;2023-02-11T08:18:03;8.60;;;4.50;;
64571;SDS011;51155;51.984;21.208;2023-02-11T08:20:35;7.70;;;4.30;;
64571;SDS011;51155;51.984;21.208;2023-02-11T08:23:07;7.10;;;3.80;;
64571;SDS011;51155;51.984;21.208;2023-02-11T08:25:39;7.10;;;3.90;;
64571;SDS011;51155;51.984;21.208;2023-02-11T08:28:11;6.40;;;4.30;;
64571;SDS011;51155;51.984;21.208;2023-02-11T08:30:43;8.40;;;4.80;;
64571;SDS011;51155;51.984;21.208;2023-02-11T08:33:15;7.10;;;4.80;;
64571;SDS011;51155;51.984;21.208;2023-02-11T08:35:46;9.60;;;4.50;;
64571;SDS011;51155;51.984;21.208;2023-02-11T08:38:18;6.40;;;3.90;;
64571;SDS011;51155;51.984;21.208;2023-02-11T08:40:50;6.50;;;4.30;;
64571;SDS011;51155;51.984;21.208;2023-02-11T08:43:26;6.60;;;4.20;;
64571;SDS011;51155;51.984;21.208;2023-02-11T08:45:58;7.60;;;4.20;;
64571;SDS011;51155;51.984;21.208;2023-02-11T08:48:33;8.60;;;4.30;;
64571;SDS011;51155;51.984;21.208;2023-02-11T08:51:09;7.30;;;4.20;;
64571;SDS011;51155;51.984;21.208;2023-02-11T08:53:42;6.10;;;4.00;;
64571;SDS011;51155;51.984;21.208;2023-02-11T08:56:15;7.10;;;4.30;;
64571;SDS011;51155;51.984;21.208;2023-02-11T08:58:48;7.10;;;4.40;;
64571;SDS011;51155;51.984;21.208;2023-02-11T09:01:22;6.50;;;4.80;;
64571;SDS011;51155;51.984;21.208;2023-02-11T09:03:56;6.40;;;4.50;;
64571;SDS011;51155;51.984;21.208;2023-02-11T09:06:28;7.10;;;4.60;;
64571;SDS011;51155;51.984;21.208;2023-02-11T09:09:00;8.80;;;4.50;;
64571;SDS011;51155;51.984;21.208;2023-02-11T09:11:34;7.10;;;4.60;;
64571;SDS011;51155;51.984;21.208;2023-02-11T09:14:06;8.60;;;4.70;;
64571;SDS011;51155;51.984;21.208;2023-02-11T09:16:38;8.40;;;5.00;;
64571;SDS011;51155;51.984;21.208;2023-02-11T09:19:10;7.40;;;4.10;;
64571;SDS011;51155;51.984;21.208;2023-02-11T09:21:43;7.00;;;4.00;;
64571;SDS011;51155;51.984;21.208;2023-02-11T09:24:15;10.10;;;5.20;;
64571;SDS011;51155;51.984;21.208;2023-02-11T09:26:47;6.40;;;4.20;;
64571;SDS011;51155;51.984;21.208;2023-02-11T09:29:20;7.30;;;4.40;;
64571;SDS011;51155;51.984;21.208;2023-02-11T09:31:52;5.00;;;3.60;;
64571;SDS011;51155;51.984;21.208;2023-02-11T09:34:24;8.60;;;4.50;;
64571;SDS011;51155;51.984;21.208;2023-02-11T09:36:56;7.50;;;4.40;;
64571;SDS011;51155;51.984;21.208;2023-02-11T09:39:28;7.40;;;4.30;;
64571;SDS011;51155;51.984;21.208;2023-02-11T09:44:34;6.40;;;4.60;;
64571;SDS011;51155;51.984;21.208;2023-02-11T09:47:29;6.10;;;4.10;;
64571;SDS011;51155;51.984;21.208;2023-02-11T09:50:05;5.90;;;3.70;;
64571;SDS011;51155;51.984;21.208;2023-02-11T09:55:28;6.00;;;3.60;;
64571;SDS011;51155;51.984;21.208;2023-02-11T09:58:07;6.40;;;3.80;;
64571;SDS011;51155;51.984;21.208;2023-02-11T10:00:58;6.50;;;3.80;;
64571;SDS011;51155;51.984;21.208;2023-02-11T10:03:40;6.30;;;3.80;;
64571;SDS011;51155;51.984;21.208;2023-02-11T10:06:38;7.00;;;3.90;;
64571;SDS011;51155;51.984;21.208;2023-02-11T10:23:36;5.60;;;3.70;;
64571;SDS011;51155;51.984;21.208;2023-02-11T10:26:17;6.00;;;3.50;;
64571;SDS011;51155;51.984;21.208;2023-02-11T10:28:51;5.90;;;4.00;;
64571;SDS011;51155;51.984;21.208;2023-02-11T10:31:39;6.10;;;3.70;;
64571;SDS011;51155;51.984;21.208;2023-02-11T10:34:13;6.00;;;4.00;;
64571;SDS011;51155;51.984;21.208;2023-02-11T10:36:45;5.50;;;3.60;;
64571;SDS011;51155;51.984;21.208;2023-02-11T10:39:19;6.70;;;4.00;;
64571;SDS011;51155;51.984;21.208;2023-02-11T10:41:59;5.60;;;3.80;;
64571;SDS011;51155;51.984;21.208;2023-02-11T10:47:22;5.90;;;3.50;;
64571;SDS011;51155;51.984;21.208;2023-02-11T10:49:55;6.70;;;4.00;;
64571;SDS011;51155;51.984;21.208;2023-02-11T10:52:34;5.80;;;4.00;;
64571;SDS011;51155;51.984;21.208;2023-02-11T10:58:00;5.20;;;3.60;;
64571;SDS011;51155;51.984;21.208;2023-02-11T11:00:41;6.30;;;3.60;;
64571;SDS011;51155;51.984;21.208;2023-02-11T11:03:18;6.80;;;3.70;;
64571;SDS011;51155;51.984;21.208;2023-02-11T11:05:54;6.70;;;4.00;;
64571;SDS011;51155;51.984;21.208;2023-02-11T11:08:44;5.30;;;3.60;;
64571;SDS011;51155;51.984;21.208;2023-02-11T11:11:21;5.00;;;3.70;;
64571;SDS011;51155;51.984;21.208;2023-02-11T11:13:58;7.20;;;4.00;;
64571;SDS011;51155;51.984;21.208;2023-02-11T11:16:35;5.90;;;3.80;;
64571;SDS011;51155;51.984;21.208;2023-02-11T11:21:49;5.10;;;3.60;;
64571;SDS011;51155;51.984;21.208;2023-02-11T11:27:00;5.30;;;3.60;;
64571;SDS011;51155;51.984;21.208;2023-02-11T11:29:38;5.80;;;3.50;;
64571;SDS011;51155;51.984;21.208;2023-02-11T11:34:53;6.20;;;3.90;;
64571;SDS011;51155;51.984;21.208;2023-02-11T11:37:30;7.00;;;3.90;;
64571;SDS011;51155;51.984;21.208;2023-02-11T11:42:44;5.90;;;3.90;;
64571;SDS011;51155;51.984;21.208;2023-02-11T11:48:25;5.50;;;3.60;;
64571;SDS011;51155;51.984;21.208;2023-02-11T11:53:43;7.40;;;4.00;;
64571;SDS011;51155;51.984;21.208;2023-02-11T11:56:21;4.90;;;3.10;;
64571;SDS011;51155;51.984;21.208;2023-02-11T11:58:54;5.50;;;3.60;;
64571;SDS011;51155;51.984;21.208;2023-02-11T12:27:03;6.10;;;3.60;;
64571;SDS011;51155;51.984;21.208;2023-02-11T12:32:27;5.30;;;3.80;;
64571;SDS011;51155;51.984;21.208;2023-02-11T12:40:37;5.50;;;3.70;;
64571;SDS011;51155;51.984;21.208;2023-02-11T12:46:07;5.90;;;3.80;;
64571;SDS011;51155;51.984;21.208;2023-02-11T12:56:49;5.30;;;3.50;;
64571;SDS011;51155;51.984;21.208;2023-02-11T13:02:43;4.60;;;3.20;;
64571;SDS011;51155;51.984;21.208;2023-02-11T13:08:34;5.60;;;3.80;;
64571;SDS011;51155;51.984;21.208;2023-02-11T13:11:14;6.40;;;4.00;;
64571;SDS011;51155;51.984;21.208;2023-02-11T13:24:52;5.00;;;3.50;;
64571;SDS011;51155;51.984;21.208;2023-02-11T13:30:29;5.60;;;4.00;;
64571;SDS011;51155;51.984;21.208;2023-02-11T13:36:10;5.90;;;3.70;;
64571;SDS011;51155;51.984;21.208;2023-02-11T13:39:02;5.30;;;3.50;;
64571;SDS011;51155;51.984;21.208;2023-02-11T13:41:39;5.20;;;3.20;;
64571;SDS011;51155;51.984;21.208;2023-02-11T13:46:54;6.10;;;3.90;;
64571;SDS011;51155;51.984;21.208;2023-02-11T13:49:39;5.80;;;3.70;;
64571;SDS011;51155;51.984;21.208;2023-02-11T13:52:31;5.20;;;3.40;;
64571;SDS011;51155;51.984;21.208;2023-02-11T13:57:42;5.60;;;3.90;;
64571;SDS011;51155;51.984;21.208;2023-02-11T14:09:07;5.00;;;3.70;;
64571;SDS011;51155;51.984;21.208;2023-02-11T14:14:25;6.20;;;4.00;;
64571;SDS011;51155;51.984;21.208;2023-02-11T14:19:41;5.40;;;3.30;;
64571;SDS011;51155;51.984;21.208;2023-02-11T14:22:40;6.10;;;3.70;;
64571;SDS011;51155;51.984;21.208;2023-02-11T14:25:23;6.60;;;4.50;;
64571;SDS011;51155;51.984;21.208;2023-02-11T14:28:19;5.80;;;3.90;;
64571;SDS011;51155;51.984;21.208;2023-02-11T14:31:06;6.70;;;3.60;;
64571;SDS011;51155;51.984;21.208;2023-02-11T14:37:01;6.20;;;3.70;;
64571;SDS011;51155;51.984;21.208;2023-02-11T14:42:17;5.30;;;3.40;;
64571;SDS011;51155;51.984;21.208;2023-02-11T14:44:53;6.20;;;3.70;;
64571;SDS011;51155;51.984;21.208;2023-02-11T14:47:29;6.90;;;3.70;;
64571;SDS011;51155;51.984;21.208;2023-02-11T14:50:09;6.60;;;3.80;;
64571;SDS011;51155;51.984;21.208;2023-02-11T14:52:45;5.10;;;3.50;;
64571;SDS011;51155;51.984;21.208;2023-02-11T14:55:23;6.10;;;3.90;;
64571;SDS011;51155;51.984;21.208;2023-02-11T15:00:45;5.50;;;3.50;;
64571;SDS011;51155;51.984;21.208;2023-02-11T15:06:20;6.30;;;3.40;;
64571;SDS011;51155;51.984;21.208;2023-02-11T15:08:57;5.70;;;3.50;;
64571;SDS011;51155;51.984;21.208;2023-02-11T15:11:38;6.50;;;3.80;;
64571;SDS011;51155;51.984;21.208;2023-02-11T15:14:18;6.00;;;3.90;;
64571;SDS011;51155;51.984;21.208;2023-02-11T15:16:55;5.20;;;3.60;;
64571;SDS011;51155;51.984;21.208;2023-02-11T15:19:29;5.50;;;3.50;;
64571;SDS011;51155;51.984;21.208;2023-02-11T15:22:18;5.70;;;3.80;;
64571;SDS011;51155;51.984;21.208;2023-02-11T15:27:43;5.80;;;3.80;;
64571;SDS011;51155;51.984;21.208;2023-02-11T15:32:56;6.90;;;4.10;;
64571;SDS011;51155;51.984;21.208;2023-02-11T15:35:37;5.50;;;3.40;;
64571;SDS011;51155;51.984;21.208;2023-02-11T15:38:11;6.60;;;4.10;;
64571;SDS011;51155;51.984;21.208;2023-02-11T15:40:58;5.60;;;3.60;;
64571;SDS011;51155;51.984;21.208;2023-02-11T15:43:45;5.50;;;3.60;;
64571;SDS011;51155;51.984;21.208;2023-02-11T15:46:21;5.40;;;3.60;;
64571;SDS011;51155;51.984;21.208;2023-02-11T15:48:54;4.30;;;3.20;;
64571;SDS011;51155;51.984;21.208;2023-02-11T15:51:28;5.90;;;3.30;;
64571;SDS011;51155;51.984;21.208;2023-02-11T15:54:18;4.90;;;3.30;;
64571;SDS011;51155;51.984;21.208;2023-02-11T15:56:52;5.10;;;3.40;;
64571;SDS011;51155;51.984;21.208;2023-02-11T15:59:37;5.00;;;3.30;;
64571;SDS011;51155;51.984;21.208;2023-02-11T16:02:33;5.30;;;3.40;;
64571;SDS011;51155;51.984;21.208;2023-02-11T16:05:08;5.00;;;3.10;;
64571;SDS011;51155;51.984;21.208;2023-02-11T16:07:43;5.00;;;3.10;;
64571;SDS011;51155;51.984;21.208;2023-02-11T16:10:24;4.70;;;3.40;;
64571;SDS011;51155;51.984;21.208;2023-02-11T16:15:48;4.60;;;3.10;;
64571;SDS011;51155;51.984;21.208;2023-02-11T16:18:38;5.30;;;3.30;;
64571;SDS011;51155;51.984;21.208;2023-02-11T16:21:36;4.50;;;3.20;;
64571;SDS011;51155;51.984;21.208;2023-02-11T16:24:29;4.80;;;3.30;;
64571;SDS011;51155;51.984;21.208;2023-02-11T16:27:04;5.30;;;3.10;;
64571;SDS011;51155;51.984;21.208;2023-02-11T16:29:37;5.10;;;3.20;;
64571;SDS011;51155;51.984;21.208;2023-02-11T16:34:44;4.40;;;3.20;;
64571;SDS011;51155;51.984;21.208;2023-02-11T16:37:16;5.30;;;3.60;;
64571;SDS011;51155;51.984;21.208;2023-02-11T16:39:48;4.50;;;3.10;;
64571;SDS011;51155;51.984;21.208;2023-02-11T16:42:20;4.80;;;3.00;;
64571;SDS011;51155;51.984;21.208;2023-02-11T16:44:52;4.60;;;3.20;;
64571;SDS011;51155;51.984;21.208;2023-02-11T16:47:26;4.50;;;2.90;;
64571;SDS011;51155;51.984;21.208;2023-02-11T16:49:58;3.90;;;2.90;;
64571;SDS011;51155;51.984;21.208;2023-02-11T16:52:31;4.10;;;2.70;;
64571;SDS011;51155;51.984;21.208;2023-02-11T16:55:04;4.50;;;2.90;;
64571;SDS011;51155;51.984;21.208;2023-02-11T17:00:09;4.60;;;2.80;;
64571;SDS011;51155;51.984;21.208;2023-02-11T17:02:42;4.00;;;2.70;;
64571;SDS011;51155;51.984;21.208;2023-02-11T17:05:16;4.20;;;2.70;;
64571;SDS011;51155;51.984;21.208;2023-02-11T17:07:50;5.30;;;3.50;;
64571;SDS011;51155;51.984;21.208;2023-02-11T17:10:23;3.90;;;2.50;;
64571;SDS011;51155;51.984;21.208;2023-02-11T17:12:55;4.70;;;3.30;;
64571;SDS011;51155;51.984;21.208;2023-02-11T17:15:27;4.30;;;2.80;;
64571;SDS011;51155;51.984;21.208;2023-02-11T17:17:59;5.30;;;3.10;;
64571;SDS011;51155;51.984;21.208;2023-02-11T17:20:30;4.00;;;3.00;;
64571;SDS011;51155;51.984;21.208;2023-02-11T17:23:03;4.00;;;2.50;;
64571;SDS011;51155;51.984;21.208;2023-02-11T17:25:35;4.00;;;2.50;;
64571;SDS011;51155;51.984;21.208;2023-02-11T17:28:11;5.20;;;3.40;;
64571;SDS011;51155;51.984;21.208;2023-02-11T17:30:43;4.80;;;2.70;;
64571;SDS011;51155;51.984;21.208;2023-02-11T17:33:15;5.10;;;3.40;;
64571;SDS011;51155;51.984;21.208;2023-02-11T17:35:47;3.80;;;2.60;;
64571;SDS011;51155;51.984;21.208;2023-02-11T17:38:19;4.60;;;2.80;;
64571;SDS011;51155;51.984;21.208;2023-02-11T17:40:58;5.10;;;2.90;;
64571;SDS011;51155;51.984;21.208;2023-02-11T17:43:30;4.40;;;2.90;;
64571;SDS011;51155;51.984;21.208;2023-02-11T17:46:06;3.50;;;2.30;;
64571;SDS011;51155;51.984;21.208;2023-02-11T17:48:39;4.60;;;2.80;;
64571;SDS011;51155;51.984;21.208;2023-02-11T17:51:24;5.30;;;2.90;;
64571;SDS011;51155;51.984;21.208;2023-02-11T17:53:58;4.40;;;2.90;;
64571;SDS011;51155;51.984;21.208;2023-02-11T17:56:31;4.30;;;2.80;;
64571;SDS011;51155;51.984;21.208;2023-02-11T17:59:05;4.60;;;2.40;;
64571;SDS011;51155;51.984;21.208;2023-02-11T18:01:42;3.60;;;2.60;;
64571;SDS011;51155;51.984;21.208;2023-02-11T18:04:16;4.80;;;3.00;;
64571;SDS011;51155;51.984;21.208;2023-02-11T18:06:49;4.30;;;2.80;;
64571;SDS011;51155;51.984;21.208;2023-02-11T18:09:21;4.00;;;2.60;;
64571;SDS011;51155;51.984;21.208;2023-02-11T18:11:53;4.10;;;2.60;;
64571;SDS011;51155;51.984;21.208;2023-02-11T18:14:25;4.60;;;2.70;;
64571;SDS011;51155;51.984;21.208;2023-02-11T18:16:57;3.90;;;2.60;;
64571;SDS011;51155;51.984;21.208;2023-02-11T18:19:29;4.00;;;2.60;;
64571;SDS011;51155;51.984;21.208;2023-02-11T18:22:03;4.70;;;2.60;;
64571;SDS011;51155;51.984;21.208;2023-02-11T18:24:35;3.60;;;2.40;;
64571;SDS011;51155;51.984;21.208;2023-02-11T18:27:08;4.50;;;2.80;;
64571;SDS011;51155;51.984;21.208;2023-02-11T18:29:39;4.50;;;2.40;;
64571;SDS011;51155;51.984;21.208;2023-02-11T18:32:12;3.70;;;2.40;;
64571;SDS011;51155;51.984;21.208;2023-02-11T18:34:44;3.80;;;2.60;;
64571;SDS011;51155;51.984;21.208;2023-02-11T18:37:16;3.50;;;2.50;;
64571;SDS011;51155;51.984;21.208;2023-02-11T18:39:48;3.50;;;2.30;;